createdAt,value
2018-02-09T00:00:43.350Z,-2.60
2018-02-09T00:03:09.126Z,-2.56
2018-02-09T00:05:34.919Z,-2.70
2018-02-09T00:08:01.105Z,-2.70
2018-02-09T00:10:26.931Z,-2.61
2018-02-09T00:12:52.716Z,-2.49
2018-02-09T00:15:18.524Z,-2.64
2018-02-09T00:17:44.314Z,-2.78
2018-02-09T00:20:10.106Z,-2.71
2018-02-09T00:22:48.602Z,-2.73
2018-02-09T00:25:14.390Z,-2.79
2018-02-09T00:27:40.186Z,-2.85
2018-02-09T00:30:05.991Z,-2.82
2018-02-09T00:32:31.771Z,-2.85
2018-02-09T00:34:57.567Z,-2.95
2018-02-09T00:37:23.375Z,-3.02
2018-02-09T00:39:49.202Z,-2.75
2018-02-09T00:42:15.010Z,-2.88
2018-02-09T00:44:41.178Z,-2.97
2018-02-09T00:47:06.966Z,-3.05
2018-02-09T00:49:32.763Z,-3.07
2018-02-09T00:51:58.570Z,-2.99
2018-02-09T00:54:24.374Z,-2.94
2018-02-09T00:56:50.174Z,-3.03
2018-02-09T00:59:15.988Z,-3.04
2018-02-09T01:01:41.787Z,-3.11
2018-02-09T01:04:07.586Z,-3.06
2018-02-09T01:06:33.398Z,-3.04
2018-02-09T01:08:59.185Z,-2.99
2018-02-09T01:11:24.974Z,-3.07
2018-02-09T01:13:50.897Z,-3.13
2018-02-09T01:16:16.702Z,-3.33
2018-02-09T01:18:42.487Z,-3.18
2018-02-09T01:21:08.274Z,-3.26
2018-02-09T01:23:34.055Z,-3.31
2018-02-09T01:25:59.842Z,-3.41
2018-02-09T01:28:25.645Z,-3.38
2018-02-09T01:30:58.329Z,-3.40
2018-02-09T01:33:24.130Z,-3.28
2018-02-09T01:35:50.123Z,-3.25
2018-02-09T01:38:15.906Z,-3.24
2018-02-09T01:40:42.050Z,-3.28
2018-02-09T01:43:07.858Z,-3.40
2018-02-09T01:45:33.657Z,-3.40
2018-02-09T01:47:59.446Z,-3.40
2018-02-09T01:50:25.251Z,-3.49
2018-02-09T01:52:51.034Z,-3.48
2018-02-09T01:55:16.815Z,-3.63
2018-02-09T01:57:42.805Z,-3.63
2018-02-09T02:00:08.611Z,-3.58
2018-02-09T02:02:34.410Z,-3.54
2018-02-09T02:05:00.447Z,-3.56
2018-02-09T02:07:26.228Z,-3.64
2018-02-09T02:09:52.028Z,-3.69
2018-02-09T02:12:17.882Z,-3.74
2018-02-09T02:14:43.673Z,-3.55
2018-02-09T02:17:09.454Z,-3.50
2018-02-09T02:19:35.369Z,-3.65
2018-02-09T02:22:01.138Z,-3.74
2018-02-09T02:24:26.922Z,-3.66
2018-02-09T02:26:52.729Z,-3.69
2018-02-09T02:29:18.513Z,-3.77
2018-02-09T02:31:44.277Z,-3.75
2018-02-09T02:34:10.178Z,-3.80
2018-02-09T02:36:36.006Z,-3.88
2018-02-09T02:39:01.829Z,-3.82
2018-02-09T02:41:27.725Z,-3.87
2018-02-09T02:43:53.501Z,-3.88
2018-02-09T02:46:19.269Z,-3.95
2018-02-09T02:48:45.275Z,-4.08
2018-02-09T02:51:11.058Z,-4.09
2018-02-09T02:53:36.834Z,-4.03
2018-02-09T02:56:02.645Z,-4.08
2018-02-09T02:58:28.419Z,-4.10
2018-02-09T03:00:54.433Z,-3.95
2018-02-09T03:03:20.217Z,-4.01
2018-02-09T03:05:45.998Z,-3.98
2018-02-09T03:08:11.791Z,-4.03
2018-02-09T03:10:37.601Z,-4.09
2018-02-09T03:13:03.376Z,-4.09
2018-02-09T03:15:29.417Z,-4.14
2018-02-09T03:17:55.190Z,-4.13
2018-02-09T03:20:21.000Z,-4.04
2018-02-09T03:22:46.762Z,-4.14
2018-02-09T03:25:12.573Z,-4.11
2018-02-09T03:27:38.387Z,-4.12
2018-02-09T03:30:04.218Z,-4.14
2018-02-09T03:32:30.012Z,-4.08
2018-02-09T03:34:55.794Z,-4.26
2018-02-09T03:37:21.579Z,-4.24
2018-02-09T03:39:47.370Z,-4.05
2018-02-09T03:42:13.145Z,-4.15
2018-02-09T03:44:39.292Z,-4.20
2018-02-09T03:47:05.058Z,-4.20
2018-02-09T03:49:30.845Z,-4.32
2018-02-09T03:51:56.757Z,-4.38
2018-02-09T03:54:29.502Z,-4.40
2018-02-09T03:56:55.269Z,-4.42
2018-02-09T03:59:21.058Z,-4.40
2018-02-09T04:01:46.830Z,-4.35
2018-02-09T04:04:12.599Z,-4.34
2018-02-09T04:06:38.385Z,-4.35
2018-02-09T04:09:04.206Z,-4.26
2018-02-09T04:11:29.982Z,-4.32
2018-02-09T04:13:55.769Z,-4.38
2018-02-09T04:16:21.542Z,-4.35
2018-02-09T04:18:47.366Z,-4.32
2018-02-09T04:21:13.141Z,-4.36
2018-02-09T04:23:38.914Z,-4.27
2018-02-09T04:26:04.677Z,-4.30
2018-02-09T04:28:30.470Z,-4.34
2018-02-09T04:30:56.329Z,-4.29
2018-02-09T04:33:22.105Z,-4.34
2018-02-09T04:35:47.881Z,-4.45
2018-02-09T04:38:13.648Z,-4.50
2018-02-09T04:40:39.442Z,-4.49
2018-02-09T04:43:05.216Z,-4.39
2018-02-09T04:45:30.990Z,-4.48
2018-02-09T04:47:56.790Z,-4.45
2018-02-09T04:50:22.583Z,-4.38
2018-02-09T04:52:48.373Z,-4.50
2018-02-09T04:55:14.473Z,-4.43
2018-02-09T04:57:40.246Z,-4.44
2018-02-09T05:00:06.135Z,-4.32
2018-02-09T05:02:31.921Z,-4.33
2018-02-09T05:04:57.693Z,-4.27
2018-02-09T05:07:23.465Z,-4.28
2018-02-09T05:09:49.249Z,-4.39
2018-02-09T05:12:15.018Z,-4.44
2018-02-09T05:14:40.789Z,-4.46
2018-02-09T05:17:06.591Z,-4.46
2018-02-09T05:19:32.371Z,-4.39
2018-02-09T05:21:58.150Z,-4.43
2018-02-09T05:24:23.949Z,-4.40
2018-02-09T05:26:49.726Z,-4.42
2018-02-09T05:29:15.493Z,-4.43
2018-02-09T05:31:41.314Z,-4.47
2018-02-09T05:34:07.085Z,-4.51
2018-02-09T05:36:32.894Z,-4.50
2018-02-09T05:38:58.703Z,-4.47
2018-02-09T05:41:24.476Z,-4.47
2018-02-09T05:43:50.269Z,-4.46
2018-02-09T05:46:16.249Z,-4.47
2018-02-09T05:48:42.018Z,-4.47
2018-02-09T05:51:07.806Z,-4.54
2018-02-09T05:53:33.638Z,-4.52
2018-02-09T05:55:59.421Z,-4.47
2018-02-09T05:58:25.201Z,-4.46
2018-02-09T06:00:51.061Z,-4.47
2018-02-09T06:03:16.847Z,-4.46
2018-02-09T06:05:42.629Z,-4.49
2018-02-09T06:08:08.617Z,-4.56
2018-02-09T06:10:34.394Z,-4.58
2018-02-09T06:13:00.174Z,-4.62
2018-02-09T06:15:25.974Z,-4.63
2018-02-09T06:17:51.748Z,-4.61
2018-02-09T06:20:17.981Z,-4.68
2018-02-09T06:22:44.137Z,-4.59
2018-02-09T06:25:09.903Z,-4.64
2018-02-09T06:27:35.684Z,-4.68
2018-02-09T06:30:01.493Z,-4.65
2018-02-09T06:32:27.269Z,-4.66
2018-02-09T06:34:53.126Z,-4.70
2018-02-09T06:37:18.917Z,-4.73
2018-02-09T06:39:44.724Z,-4.74
2018-02-09T06:42:10.498Z,-4.62
2018-02-09T06:44:36.314Z,-4.62
2018-02-09T06:47:02.126Z,-4.57
2018-02-09T06:49:27.906Z,-4.47
2018-02-09T06:51:53.970Z,-4.65
2018-02-09T06:54:19.746Z,-4.73
2018-02-09T06:56:45.514Z,-4.56
2018-02-09T06:59:11.372Z,-4.55
2018-02-09T07:01:37.153Z,-4.52
2018-02-09T07:04:02.959Z,-4.65
2018-02-09T07:06:28.782Z,-4.68
2018-02-09T07:08:54.557Z,-4.59
2018-02-09T07:11:20.334Z,-4.59
2018-02-09T07:13:46.331Z,-4.68
2018-02-09T07:16:12.115Z,-4.75
2018-02-09T07:18:37.901Z,-4.64
2018-02-09T07:21:03.729Z,-4.45
2018-02-09T07:23:29.511Z,-4.46
2018-02-09T07:25:55.278Z,-4.44
2018-02-09T07:28:21.087Z,-4.38
2018-02-09T07:30:46.943Z,-4.31
2018-02-09T07:33:19.693Z,-4.29
2018-02-09T07:35:45.489Z,-4.39
2018-02-09T07:38:11.282Z,-4.31
2018-02-09T07:40:37.057Z,-4.26
2018-02-09T07:43:02.881Z,-4.18
2018-02-09T07:45:28.653Z,-4.19
2018-02-09T07:47:54.444Z,-4.22
2018-02-09T07:50:21.062Z,-4.19
2018-02-09T07:52:46.844Z,-4.08
2018-02-09T07:55:12.629Z,-3.91
2018-02-09T07:57:38.490Z,-3.96
2018-02-09T08:00:04.299Z,-3.95
2018-02-09T08:02:30.115Z,-3.86
2018-02-09T08:04:56.094Z,-3.81
2018-02-09T08:07:21.869Z,-3.76
2018-02-09T08:09:47.641Z,-3.63
2018-02-09T08:12:13.748Z,-3.48
2018-02-09T08:14:39.526Z,-3.51
2018-02-09T08:17:05.313Z,-3.39
2018-02-09T08:19:32.570Z,-3.46
2018-02-09T08:21:58.415Z,-3.43
2018-02-09T08:24:25.082Z,-3.42
2018-02-09T08:26:51.119Z,-3.30
2018-02-09T08:29:19.210Z,-3.38
2018-02-09T08:31:45.830Z,-3.15
2018-02-09T08:34:13.082Z,-3.01
2018-02-09T08:36:39.617Z,-3.01
2018-02-09T08:39:06.970Z,-2.89
2018-02-09T08:41:32.833Z,-2.83
2018-02-09T08:43:58.613Z,-2.88
2018-02-09T08:46:24.386Z,-2.79
2018-02-09T08:48:50.175Z,-2.55
2018-02-09T08:51:15.977Z,-2.60
2018-02-09T08:53:41.765Z,-2.49
2018-02-09T08:56:07.577Z,-2.36
2018-02-09T08:58:33.367Z,-2.35
2018-02-09T09:00:59.141Z,-2.40
2018-02-09T09:03:24.978Z,-1.94
2018-02-09T09:05:50.778Z,-2.04
2018-02-09T09:08:16.562Z,-1.89
2018-02-09T09:10:42.351Z,-1.46
2018-02-09T09:13:08.126Z,-1.64
2018-02-09T09:15:33.922Z,-2.00
2018-02-09T09:17:59.744Z,-2.04
2018-02-09T09:20:25.513Z,-1.75
2018-02-09T09:22:51.341Z,-1.77
2018-02-09T09:25:17.143Z,-1.84
2018-02-09T09:27:42.925Z,-1.99
2018-02-09T09:30:08.707Z,-1.85
2018-02-09T09:32:34.863Z,-1.74
2018-02-09T09:35:00.652Z,-1.60
2018-02-09T09:37:26.418Z,-1.51
2018-02-09T09:39:52.209Z,-1.37
2018-02-09T09:42:17.977Z,-1.34
2018-02-09T09:44:43.809Z,-1.12
2018-02-09T09:47:09.590Z,-1.19
2018-02-09T09:49:35.373Z,-1.06
2018-02-09T09:52:01.156Z,-1.13
2018-02-09T09:54:26.964Z,-1.06
2018-02-09T09:56:52.780Z,-0.99
2018-02-09T09:59:18.560Z,-0.90
2018-02-09T10:01:44.654Z,-1.00
2018-02-09T10:04:10.443Z,-1.05
2018-02-09T10:06:36.251Z,-1.00
2018-02-09T10:09:02.446Z,-1.03
2018-02-09T10:11:28.230Z,-0.93
2018-02-09T10:13:53.997Z,-0.72
2018-02-09T10:16:19.999Z,-0.83
2018-02-09T10:18:45.798Z,-0.81
2018-02-09T10:21:11.580Z,-0.72
2018-02-09T10:23:37.426Z,-0.50
2018-02-09T10:26:03.220Z,-0.38
2018-02-09T10:28:28.985Z,-0.22
2018-02-09T10:30:54.776Z,-0.25
2018-02-09T10:33:20.618Z,-0.25
2018-02-09T10:35:46.819Z,-0.13
2018-02-09T10:38:12.730Z,-0.17
2018-02-09T10:40:38.895Z,-0.09
2018-02-09T10:43:04.654Z,0.02
2018-02-09T10:45:31.208Z,-0.15
2018-02-09T10:47:57.103Z,-0.05
2018-02-09T10:50:23.797Z,-0.25
2018-02-09T10:52:50.013Z,-0.16
2018-02-09T10:55:16.482Z,0.21
2018-02-09T10:57:42.359Z,0.45
2018-02-09T11:00:08.562Z,0.45
2018-02-09T11:02:34.350Z,0.53
2018-02-09T11:05:00.793Z,0.58
2018-02-09T11:07:26.605Z,0.57
2018-02-09T11:09:52.883Z,0.86
2018-02-09T11:12:21.298Z,0.76
2018-02-09T11:14:47.148Z,0.66
2018-02-09T11:17:13.454Z,0.77
2018-02-09T11:19:39.226Z,0.79
2018-02-09T11:22:05.036Z,0.65
2018-02-09T11:24:30.817Z,0.87
2018-02-09T11:26:56.781Z,1.06
2018-02-09T11:29:22.575Z,1.08
2018-02-09T11:31:48.347Z,1.01
2018-02-09T11:34:14.119Z,1.16
2018-02-09T11:36:39.930Z,1.23
2018-02-09T11:39:05.721Z,1.49
2018-02-09T11:41:31.518Z,1.55
2018-02-09T11:43:57.310Z,1.68
2018-02-09T11:46:23.102Z,1.73
2018-02-09T11:48:48.894Z,1.32
2018-02-09T11:51:14.687Z,1.30
2018-02-09T11:53:40.662Z,1.51
2018-02-09T11:56:06.446Z,1.91
2018-02-09T11:58:32.515Z,1.96
2018-02-09T12:00:58.790Z,1.99
2018-02-09T12:03:25.117Z,1.94
2018-02-09T12:05:50.906Z,1.99
2018-02-09T12:08:17.001Z,1.72
2018-02-09T12:10:42.795Z,1.50
2018-02-09T12:13:08.706Z,1.84
2018-02-09T12:15:34.532Z,2.12
2018-02-09T12:18:00.356Z,2.16
2018-02-09T12:20:26.151Z,2.22
2018-02-09T12:22:51.933Z,2.08
2018-02-09T12:25:17.740Z,2.08
2018-02-09T12:27:43.536Z,2.07
2018-02-09T12:30:09.318Z,2.19
2018-02-09T12:32:35.516Z,1.96
2018-02-09T12:35:01.607Z,2.12
2018-02-09T12:37:27.391Z,2.33
2018-02-09T12:39:53.189Z,2.40
2018-02-09T12:42:18.976Z,2.57
2018-02-09T12:44:44.762Z,2.71
2018-02-09T12:47:10.578Z,2.48
2018-02-09T12:49:36.353Z,2.70
2018-02-09T12:52:02.134Z,3.07
2018-02-09T12:54:27.942Z,3.47
2018-02-09T12:56:53.753Z,3.21
2018-02-09T12:59:19.536Z,3.39
2018-02-09T13:01:45.347Z,3.72
2018-02-09T13:04:11.139Z,3.57
2018-02-09T13:06:36.919Z,3.88
2018-02-09T13:09:02.776Z,4.66
2018-02-09T13:11:28.558Z,5.06
2018-02-09T13:13:54.325Z,4.81
2018-02-09T13:16:20.133Z,4.61
2018-02-09T13:18:47.822Z,4.17
2018-02-09T13:21:13.614Z,4.64
2018-02-09T13:23:51.867Z,4.20
2018-02-09T13:26:17.659Z,4.69
2018-02-09T13:28:55.966Z,4.87
2018-02-09T13:31:21.759Z,5.31
2018-02-09T13:33:47.543Z,4.80
2018-02-09T13:36:14.239Z,4.80
2018-02-09T13:38:40.031Z,4.78
2018-02-09T13:41:05.810Z,5.53
2018-02-09T13:43:31.694Z,5.87
2018-02-09T13:45:57.470Z,4.86
2018-02-09T13:48:30.200Z,4.98
2018-02-09T13:50:56.031Z,5.25
2018-02-09T13:53:21.807Z,5.20
2018-02-09T13:55:47.590Z,5.13
2018-02-09T13:58:13.482Z,5.10
2018-02-09T14:00:39.271Z,4.89
2018-02-09T14:05:37.714Z,5.41
2018-02-09T14:08:03.494Z,5.23
2018-02-09T14:10:29.274Z,4.85
2018-02-09T14:12:55.970Z,4.63
2018-02-09T14:15:21.770Z,4.63
2018-02-09T14:17:47.538Z,4.39
2018-02-09T14:20:13.339Z,4.17
2018-02-09T14:22:39.172Z,4.20
2018-02-09T14:25:04.925Z,4.38
2018-02-09T14:27:30.718Z,4.26
2018-02-09T14:29:56.498Z,3.52
2018-02-09T14:32:22.280Z,3.54
2018-02-09T14:34:48.111Z,3.18
2018-02-09T14:37:13.894Z,3.01
2018-02-09T14:39:39.680Z,3.20
2018-02-09T14:42:05.462Z,2.94
2018-02-09T14:44:31.250Z,2.88
2018-02-09T14:46:57.055Z,3.07
2018-02-09T14:49:22.883Z,2.82
2018-02-09T14:51:48.630Z,2.70
2018-02-09T14:54:14.437Z,2.47
2018-02-09T14:56:40.214Z,2.53
2018-02-09T14:59:12.948Z,2.66
2018-02-09T15:01:38.754Z,2.63
2018-02-09T15:04:04.529Z,2.69
2018-02-09T15:06:30.298Z,2.53
2018-02-09T15:08:56.109Z,2.51
2018-02-09T15:11:21.902Z,2.68
2018-02-09T15:13:47.685Z,2.49
2018-02-09T15:16:13.491Z,2.50
2018-02-09T15:18:39.323Z,2.56
2018-02-09T15:21:05.130Z,3.93
2018-02-09T15:23:31.186Z,6.08
2018-02-09T15:25:56.978Z,4.89
2018-02-09T15:28:22.782Z,5.24
2018-02-09T15:30:48.607Z,5.46
2018-02-09T15:33:14.405Z,6.00
2018-02-09T15:35:40.202Z,6.30
2018-02-09T15:38:06.021Z,5.65
2018-02-09T15:40:31.803Z,5.36
2018-02-09T15:42:57.603Z,5.97
2018-02-09T15:45:23.410Z,6.07
2018-02-09T15:47:49.188Z,5.63
2018-02-09T15:50:14.966Z,6.21
2018-02-09T15:52:47.732Z,4.98
2018-02-09T15:55:13.522Z,5.41
2018-02-09T15:57:39.309Z,4.71
2018-02-09T16:00:05.133Z,5.14
2018-02-09T16:02:30.926Z,5.09
2018-02-09T16:04:56.698Z,4.84
2018-02-09T16:07:22.859Z,4.35
2018-02-09T16:09:48.638Z,4.76
2018-02-09T16:12:14.418Z,4.95
2018-02-09T16:14:40.217Z,5.20
2018-02-09T16:17:06.011Z,4.56
2018-02-09T16:19:31.792Z,4.13
2018-02-09T16:21:57.674Z,2.74
2018-02-09T16:24:23.449Z,2.14
2018-02-09T16:26:49.251Z,1.85
2018-02-09T16:29:15.046Z,1.79
2018-02-09T16:31:40.838Z,1.64
2018-02-09T16:34:06.619Z,1.44
2018-02-09T16:36:32.422Z,1.28
2018-02-09T16:38:58.199Z,1.25
2018-02-09T16:41:23.983Z,1.09
2018-02-09T16:43:49.782Z,1.08
2018-02-09T16:46:15.563Z,1.04
2018-02-09T16:48:41.342Z,0.93
2018-02-09T16:51:07.114Z,0.86
2018-02-09T16:53:32.924Z,0.76
2018-02-09T16:55:59.123Z,0.69
2018-02-09T16:58:24.906Z,0.74
2018-02-09T17:00:50.685Z,0.72
2018-02-09T17:03:16.575Z,0.63
2018-02-09T17:05:42.350Z,0.65
2018-02-09T17:08:08.132Z,0.52
2018-02-09T17:10:33.999Z,0.47
2018-02-09T17:12:59.783Z,0.55
2018-02-09T17:15:25.577Z,0.45
2018-02-09T17:17:51.392Z,0.37
2018-02-09T17:20:17.209Z,0.44
2018-02-09T17:22:42.981Z,0.36
2018-02-09T17:25:08.788Z,0.35
2018-02-09T17:27:34.566Z,0.32
2018-02-09T17:30:00.354Z,0.27
2018-02-09T17:32:26.395Z,0.36
2018-02-09T17:34:52.183Z,0.20
2018-02-09T17:37:17.993Z,0.17
2018-02-09T17:39:43.842Z,0.21
2018-02-09T17:42:09.631Z,0.16
2018-02-09T17:44:35.411Z,0.23
2018-02-09T17:47:01.527Z,0.31
2018-02-09T17:49:27.298Z,0.19
2018-02-09T17:51:53.074Z,0.11
2018-02-09T17:54:18.889Z,0.17
2018-02-09T17:56:44.671Z,0.13
2018-02-09T17:59:10.458Z,0.20
2018-02-09T18:01:36.246Z,0.03
2018-02-09T18:04:02.063Z,-0.09
2018-02-09T18:06:27.877Z,-0.04
2018-02-09T18:08:53.690Z,0.00
2018-02-09T18:11:19.480Z,-0.01
2018-02-09T18:13:45.266Z,-0.01
2018-02-09T18:16:11.086Z,-0.03
2018-02-09T18:18:36.875Z,-0.13
2018-02-09T18:21:02.694Z,-0.14
2018-02-09T18:23:28.509Z,-0.09
2018-02-09T18:25:54.293Z,-0.18
2018-02-09T18:28:20.082Z,-0.20
2018-02-09T18:30:45.907Z,-0.20
2018-02-09T18:33:11.690Z,-0.18
2018-02-09T18:35:37.509Z,-0.23
2018-02-09T18:38:03.478Z,-0.23
2018-02-09T18:40:29.300Z,-0.33
2018-02-09T18:42:55.088Z,-0.34
2018-02-09T18:45:21.246Z,-0.41
2018-02-09T18:47:47.026Z,-0.43
2018-02-09T18:50:12.801Z,-0.34
2018-02-09T18:52:38.589Z,-0.38
2018-02-09T18:55:04.374Z,-0.37
2018-02-09T18:57:30.145Z,-0.51
2018-02-09T18:59:55.948Z,-0.54
2018-02-09T19:02:21.730Z,-0.60
2018-02-09T19:04:47.517Z,-0.70
2018-02-09T19:07:13.342Z,-0.58
2018-02-09T19:09:39.124Z,-0.52
2018-02-09T19:12:04.909Z,-0.68
2018-02-09T19:14:30.858Z,-0.68
2018-02-09T19:16:56.633Z,-0.75
2018-02-09T19:19:22.427Z,-0.70
2018-02-09T19:21:48.253Z,-0.76
2018-02-09T19:24:14.026Z,-0.80
2018-02-09T19:26:41.045Z,-0.76
2018-02-09T19:29:06.862Z,-0.82
2018-02-09T19:31:32.786Z,-0.82
2018-02-09T19:33:58.582Z,-0.81
2018-02-09T19:36:25.040Z,-0.80
2018-02-09T19:38:50.826Z,-0.83
2018-02-09T19:41:17.180Z,-0.84
2018-02-09T19:43:43.007Z,-0.91
2018-02-09T19:46:09.626Z,-0.96
2018-02-09T19:48:35.419Z,-1.04
2018-02-09T19:51:02.196Z,-1.02
2018-02-09T19:53:27.991Z,-1.02
2018-02-09T19:55:54.118Z,-0.99
2018-02-09T19:58:20.306Z,-0.93
2018-02-09T20:00:46.595Z,-0.89
2018-02-09T20:03:12.385Z,-0.99
2018-02-09T20:05:38.761Z,-1.00
2018-02-09T20:08:04.548Z,-0.99
2018-02-09T20:10:31.111Z,-1.00
2018-02-09T20:12:56.955Z,-0.94
2018-02-09T20:15:22.737Z,-0.93
2018-02-09T20:17:48.655Z,-0.96
2018-02-09T20:20:14.447Z,-0.95
2018-02-09T20:22:40.242Z,-1.02
2018-02-09T20:25:06.130Z,-1.07
2018-02-09T20:27:31.907Z,-1.05
2018-02-09T20:29:57.699Z,-1.09
2018-02-09T20:32:23.502Z,-1.12
2018-02-09T20:34:49.302Z,-1.18
2018-02-09T20:37:15.111Z,-1.18
2018-02-09T20:39:41.031Z,-1.24
2018-02-09T20:42:06.828Z,-1.15
2018-02-09T20:44:32.610Z,-1.09
2018-02-09T20:46:58.410Z,-1.05
2018-02-09T20:49:24.234Z,-1.04
2018-02-09T20:51:50.059Z,-1.10
2018-02-09T20:54:15.848Z,-1.04
2018-02-09T20:56:41.932Z,-1.04
2018-02-09T20:59:07.720Z,-1.01
2018-02-09T21:01:33.603Z,-1.06
2018-02-09T21:03:59.648Z,-1.04
2018-02-09T21:06:25.455Z,-1.06
2018-02-09T21:08:51.512Z,-0.99
2018-02-09T21:11:17.602Z,-0.89
2018-02-09T21:13:43.735Z,-1.02
2018-02-09T21:16:09.593Z,-0.98
2018-02-09T21:18:35.605Z,-1.10
2018-02-09T21:21:01.488Z,-1.17
2018-02-09T21:23:27.283Z,-1.10
2018-02-09T21:25:53.347Z,-1.07
2018-02-09T21:28:19.127Z,-1.11
2018-02-09T21:30:45.103Z,-1.16
2018-02-09T21:33:11.014Z,-1.13
2018-02-09T21:35:37.250Z,-1.14
2018-02-09T21:38:03.049Z,-1.23
2018-02-09T21:40:28.833Z,-1.24
2018-02-09T21:42:54.638Z,-1.27
2018-02-09T21:45:20.438Z,-1.41
2018-02-09T21:47:46.226Z,-1.44
2018-02-09T21:50:12.002Z,-1.38
2018-02-09T21:52:38.622Z,-1.30
2018-02-09T21:55:04.427Z,-1.22
2018-02-09T21:57:30.611Z,-1.31
2018-02-09T21:59:56.475Z,-1.29
2018-02-09T22:02:22.474Z,-1.31
2018-02-09T22:04:48.265Z,-1.32
2018-02-09T22:07:14.568Z,2.97
2018-02-09T22:09:40.341Z,3.21
2018-02-09T22:12:08.640Z,3.43
2018-02-09T22:14:34.472Z,3.91
2018-02-09T22:17:00.251Z,4.04
2018-02-09T22:19:26.030Z,3.89
2018-02-09T22:21:51.937Z,4.20
2018-02-09T22:24:17.747Z,3.22
2018-02-09T22:26:43.925Z,3.34
2018-02-09T22:29:09.724Z,2.49
2018-02-09T22:31:35.509Z,3.64
2018-02-09T22:34:01.290Z,4.00
2018-02-09T22:36:27.078Z,3.84
2018-02-09T22:38:52.922Z,2.04
2018-02-09T22:41:18.694Z,0.51
2018-02-09T22:43:44.856Z,0.00
2018-02-09T22:46:10.635Z,-0.48
2018-02-09T22:48:36.406Z,-0.75
2018-02-09T22:51:02.233Z,-0.89
2018-02-09T22:53:28.066Z,-1.17
2018-02-09T22:55:53.805Z,-1.27
2018-02-09T22:58:19.606Z,-1.34
2018-02-09T23:00:45.385Z,-1.49
2018-02-09T23:03:11.704Z,-1.47
2018-02-09T23:05:37.510Z,-1.49
2018-02-09T23:08:03.960Z,-1.56
2018-02-09T23:10:29.798Z,-1.60
2018-02-09T23:12:56.108Z,-1.68
2018-02-09T23:15:21.969Z,-1.77
2018-02-09T23:17:48.134Z,-1.79
2018-02-09T23:20:14.215Z,-1.81
2018-02-09T23:22:40.611Z,-1.86
2018-02-09T23:25:06.522Z,-1.86
2018-02-09T23:27:32.454Z,-1.93
2018-02-09T23:29:58.566Z,-1.90
2018-02-09T23:32:24.347Z,-1.85
2018-02-09T23:34:50.414Z,-1.86
2018-02-09T23:37:16.193Z,-2.00
2018-02-09T23:39:41.981Z,-1.58
2018-02-09T23:42:08.545Z,-1.40
2018-02-09T23:44:34.330Z,-1.34
2018-02-09T23:47:01.047Z,-1.26
2018-02-09T23:49:26.849Z,-1.39
2018-02-09T23:51:53.433Z,-1.34
2018-02-09T23:54:19.216Z,-1.77
2018-02-09T23:56:46.174Z,-1.98
2018-02-09T23:59:12.493Z,-2.01
